sensor_id;sensor_type;location;lat;lon;timestamp;P1;durP1;ratioP1;P2;durP2;ratioP2
20619;SDS011;10469;42.720;23.252;2022-07-29T00:01:16;13.63;;;12.23;;
20619;SDS011;10469;42.720;23.252;2022-07-29T00:03:42;14.95;;;12.73;;
20619;SDS011;10469;42.720;23.252;2022-07-29T00:06:07;16.33;;;12.98;;
20619;SDS011;10469;42.720;23.252;2022-07-29T00:08:33;15.77;;;12.05;;
20619;SDS011;10469;42.720;23.252;2022-07-29T00:10:58;15.32;;;12.02;;
20619;SDS011;10469;42.720;23.252;2022-07-29T00:13:23;14.77;;;11.40;;
20619;SDS011;10469;42.720;23.252;2022-07-29T00:15:49;15.02;;;11.65;;
20619;SDS011;10469;42.720;23.252;2022-07-29T00:18:14;14.02;;;11.43;;
20619;SDS011;10469;42.720;23.252;2022-07-29T00:20:40;14.57;;;11.70;;
20619;SDS011;10469;42.720;23.252;2022-07-29T00:23:05;14.30;;;12.15;;
20619;SDS011;10469;42.720;23.252;2022-07-29T00:25:31;16.13;;;12.73;;
20619;SDS011;10469;42.720;23.252;2022-07-29T00:27:56;15.90;;;12.77;;
20619;SDS011;10469;42.720;23.252;2022-07-29T00:30:22;21.05;;;12.20;;
20619;SDS011;10469;42.720;23.252;2022-07-29T00:32:47;16.23;;;11.85;;
20619;SDS011;10469;42.720;23.252;2022-07-29T00:35:13;14.75;;;12.77;;
20619;SDS011;10469;42.720;23.252;2022-07-29T00:37:57;14.80;;;13.02;;
20619;SDS011;10469;42.720;23.252;2022-07-29T00:40:22;14.65;;;12.73;;
20619;SDS011;10469;42.720;23.252;2022-07-29T00:42:48;14.90;;;12.85;;
20619;SDS011;10469;42.720;23.252;2022-07-29T00:45:15;19.10;;;13.85;;
20619;SDS011;10469;42.720;23.252;2022-07-29T00:47:41;15.38;;;13.40;;
20619;SDS011;10469;42.720;23.252;2022-07-29T00:50:08;21.50;;;14.23;;
20619;SDS011;10469;42.720;23.252;2022-07-29T00:52:35;17.02;;;14.77;;
20619;SDS011;10469;42.720;23.252;2022-07-29T00:55:03;18.25;;;15.73;;
20619;SDS011;10469;42.720;23.252;2022-07-29T00:57:30;17.42;;;15.50;;
20619;SDS011;10469;42.720;23.252;2022-07-29T00:59:57;19.33;;;15.90;;
20619;SDS011;10469;42.720;23.252;2022-07-29T01:02:23;20.23;;;15.02;;
20619;SDS011;10469;42.720;23.252;2022-07-29T01:04:48;17.95;;;15.40;;
20619;SDS011;10469;42.720;23.252;2022-07-29T01:07:14;21.42;;;14.95;;
20619;SDS011;10469;42.720;23.252;2022-07-29T01:09:40;21.65;;;14.48;;
20619;SDS011;10469;42.720;23.252;2022-07-29T01:12:07;17.67;;;15.45;;
20619;SDS011;10469;42.720;23.252;2022-07-29T01:14:32;18.98;;;14.88;;
20619;SDS011;10469;42.720;23.252;2022-07-29T01:17:02;20.83;;;14.50;;
20619;SDS011;10469;42.720;23.252;2022-07-29T01:22:10;19.88;;;14.60;;
20619;SDS011;10469;42.720;23.252;2022-07-29T01:30:12;19.23;;;14.50;;
20619;SDS011;10469;42.720;23.252;2022-07-29T01:32:38;17.58;;;14.65;;
20619;SDS011;10469;42.720;23.252;2022-07-29T01:40:31;19.90;;;15.68;;
20619;SDS011;10469;42.720;23.252;2022-07-29T01:42:59;20.88;;;14.70;;
20619;SDS011;10469;42.720;23.252;2022-07-29T01:45:39;21.93;;;15.10;;
20619;SDS011;10469;42.720;23.252;2022-07-29T01:48:21;17.23;;;15.20;;
20619;SDS011;10469;42.720;23.252;2022-07-29T01:50:55;18.10;;;14.60;;
20619;SDS011;10469;42.720;23.252;2022-07-29T01:53:34;20.65;;;14.60;;
20619;SDS011;10469;42.720;23.252;2022-07-29T01:56:04;16.30;;;14.60;;
20619;SDS011;10469;42.720;23.252;2022-07-29T01:58:33;19.23;;;14.52;;
20619;SDS011;10469;42.720;23.252;2022-07-29T02:01:01;15.90;;;14.07;;
20619;SDS011;10469;42.720;23.252;2022-07-29T02:03:28;17.75;;;13.90;;
20619;SDS011;10469;42.720;23.252;2022-07-29T02:05:56;16.23;;;13.55;;
20619;SDS011;10469;42.720;23.252;2022-07-29T02:08:25;18.45;;;13.77;;
20619;SDS011;10469;42.720;23.252;2022-07-29T02:10:52;18.45;;;14.00;;
20619;SDS011;10469;42.720;23.252;2022-07-29T02:13:20;17.63;;;13.20;;
20619;SDS011;10469;42.720;23.252;2022-07-29T02:15:49;17.00;;;13.65;;
20619;SDS011;10469;42.720;23.252;2022-07-29T02:18:17;24.55;;;14.52;;
20619;SDS011;10469;42.720;23.252;2022-07-29T02:20:44;18.70;;;13.70;;
20619;SDS011;10469;42.720;23.252;2022-07-29T02:23:14;17.23;;;13.60;;
20619;SDS011;10469;42.720;23.252;2022-07-29T02:25:43;14.88;;;13.35;;
20619;SDS011;10469;42.720;23.252;2022-07-29T02:28:09;18.55;;;13.95;;
20619;SDS011;10469;42.720;23.252;2022-07-29T02:30:38;16.73;;;13.75;;
20619;SDS011;10469;42.720;23.252;2022-07-29T02:33:07;16.10;;;14.35;;
20619;SDS011;10469;42.720;23.252;2022-07-29T02:35:34;21.70;;;14.68;;
20619;SDS011;10469;42.720;23.252;2022-07-29T02:38:01;20.80;;;13.88;;
20619;SDS011;10469;42.720;23.252;2022-07-29T02:40:46;19.70;;;13.35;;
20619;SDS011;10469;42.720;23.252;2022-07-29T02:43:15;22.02;;;14.30;;
20619;SDS011;10469;42.720;23.252;2022-07-29T02:45:43;20.48;;;13.82;;
20619;SDS011;10469;42.720;23.252;2022-07-29T02:48:13;21.67;;;14.02;;
20619;SDS011;10469;42.720;23.252;2022-07-29T02:50:47;17.77;;;14.48;;
20619;SDS011;10469;42.720;23.252;2022-07-29T02:53:20;16.05;;;14.40;;
20619;SDS011;10469;42.720;23.252;2022-07-29T02:55:56;16.73;;;14.93;;
20619;SDS011;10469;42.720;23.252;2022-07-29T02:58:33;22.15;;;15.07;;
20619;SDS011;10469;42.720;23.252;2022-07-29T03:01:03;21.95;;;14.55;;
20619;SDS011;10469;42.720;23.252;2022-07-29T03:03:34;22.30;;;14.98;;
20619;SDS011;10469;42.720;23.252;2022-07-29T03:06:02;18.23;;;15.32;;
20619;SDS011;10469;42.720;23.252;2022-07-29T03:08:29;20.05;;;16.33;;
20619;SDS011;10469;42.720;23.252;2022-07-29T03:10:56;21.33;;;15.57;;
20619;SDS011;10469;42.720;23.252;2022-07-29T03:13:23;18.00;;;15.40;;
20619;SDS011;10469;42.720;23.252;2022-07-29T03:15:49;26.17;;;16.80;;
20619;SDS011;10469;42.720;23.252;2022-07-29T03:18:16;20.50;;;17.40;;
20619;SDS011;10469;42.720;23.252;2022-07-29T03:20:42;22.95;;;17.10;;
20619;SDS011;10469;42.720;23.252;2022-07-29T03:23:08;26.73;;;17.55;;
20619;SDS011;10469;42.720;23.252;2022-07-29T03:25:34;24.27;;;18.20;;
20619;SDS011;10469;42.720;23.252;2022-07-29T03:28:00;23.15;;;18.08;;
20619;SDS011;10469;42.720;23.252;2022-07-29T03:30:25;24.63;;;18.45;;
20619;SDS011;10469;42.720;23.252;2022-07-29T03:32:51;26.85;;;18.85;;
20619;SDS011;10469;42.720;23.252;2022-07-29T03:35:18;23.48;;;18.10;;
20619;SDS011;10469;42.720;23.252;2022-07-29T03:37:45;25.13;;;17.80;;
20619;SDS011;10469;42.720;23.252;2022-07-29T03:40:11;24.10;;;16.75;;
20619;SDS011;10469;42.720;23.252;2022-07-29T03:42:41;21.95;;;16.63;;
20619;SDS011;10469;42.720;23.252;2022-07-29T03:45:10;21.58;;;16.50;;
20619;SDS011;10469;42.720;23.252;2022-07-29T03:47:38;22.15;;;17.15;;
20619;SDS011;10469;42.720;23.252;2022-07-29T03:50:08;21.67;;;16.35;;
20619;SDS011;10469;42.720;23.252;2022-07-29T03:52:35;27.77;;;17.20;;
20619;SDS011;10469;42.720;23.252;2022-07-29T03:55:01;20.63;;;16.50;;
20619;SDS011;10469;42.720;23.252;2022-07-29T03:57:28;19.45;;;16.15;;
20619;SDS011;10469;42.720;23.252;2022-07-29T03:59:56;24.75;;;17.42;;
20619;SDS011;10469;42.720;23.252;2022-07-29T04:02:22;20.40;;;16.33;;
20619;SDS011;10469;42.720;23.252;2022-07-29T04:04:48;22.25;;;15.77;;
20619;SDS011;10469;42.720;23.252;2022-07-29T04:07:14;22.05;;;16.95;;
20619;SDS011;10469;42.720;23.252;2022-07-29T04:09:41;21.63;;;17.00;;
20619;SDS011;10469;42.720;23.252;2022-07-29T04:12:06;19.98;;;16.42;;
20619;SDS011;10469;42.720;23.252;2022-07-29T04:14:32;19.55;;;15.60;;
20619;SDS011;10469;42.720;23.252;2022-07-29T04:16:59;18.52;;;15.52;;
20619;SDS011;10469;42.720;23.252;2022-07-29T04:19:28;20.30;;;15.45;;
20619;SDS011;10469;42.720;23.252;2022-07-29T04:21:54;25.58;;;16.92;;
20619;SDS011;10469;42.720;23.252;2022-07-29T04:24:20;21.17;;;16.77;;
20619;SDS011;10469;42.720;23.252;2022-07-29T04:26:46;22.77;;;15.95;;
20619;SDS011;10469;42.720;23.252;2022-07-29T04:29:11;22.92;;;16.10;;
20619;SDS011;10469;42.720;23.252;2022-07-29T04:31:39;20.88;;;16.50;;
20619;SDS011;10469;42.720;23.252;2022-07-29T04:34:05;17.25;;;14.85;;
20619;SDS011;10469;42.720;23.252;2022-07-29T04:36:30;26.75;;;14.95;;
20619;SDS011;10469;42.720;23.252;2022-07-29T04:38:56;19.95;;;14.88;;
20619;SDS011;10469;42.720;23.252;2022-07-29T04:41:21;20.65;;;15.48;;
20619;SDS011;10469;42.720;23.252;2022-07-29T04:43:47;21.38;;;15.45;;
20619;SDS011;10469;42.720;23.252;2022-07-29T04:46:12;26.48;;;16.73;;
20619;SDS011;10469;42.720;23.252;2022-07-29T04:48:38;29.73;;;15.88;;
20619;SDS011;10469;42.720;23.252;2022-07-29T04:51:03;22.58;;;16.13;;
20619;SDS011;10469;42.720;23.252;2022-07-29T04:53:29;23.05;;;16.20;;
20619;SDS011;10469;42.720;23.252;2022-07-29T04:55:54;23.15;;;16.25;;
20619;SDS011;10469;42.720;23.252;2022-07-29T04:58:20;37.45;;;16.88;;
20619;SDS011;10469;42.720;23.252;2022-07-29T05:00:48;26.08;;;16.80;;
20619;SDS011;10469;42.720;23.252;2022-07-29T05:03:13;21.92;;;14.93;;
20619;SDS011;10469;42.720;23.252;2022-07-29T05:05:39;41.10;;;24.05;;
20619;SDS011;10469;42.720;23.252;2022-07-29T05:08:05;31.17;;;20.42;;
20619;SDS011;10469;42.720;23.252;2022-07-29T05:10:31;24.30;;;16.38;;
20619;SDS011;10469;42.720;23.252;2022-07-29T05:12:57;18.95;;;16.02;;
20619;SDS011;10469;42.720;23.252;2022-07-29T05:15:23;27.00;;;15.98;;
20619;SDS011;10469;42.720;23.252;2022-07-29T05:17:48;20.42;;;16.30;;
20619;SDS011;10469;42.720;23.252;2022-07-29T05:20:14;21.80;;;16.40;;
20619;SDS011;10469;42.720;23.252;2022-07-29T05:22:39;20.33;;;16.48;;
20619;SDS011;10469;42.720;23.252;2022-07-29T05:25:05;21.05;;;16.15;;
20619;SDS011;10469;42.720;23.252;2022-07-29T05:27:30;22.52;;;16.70;;
20619;SDS011;10469;42.720;23.252;2022-07-29T05:42:35;28.50;;;17.48;;
20619;SDS011;10469;42.720;23.252;2022-07-29T05:45:01;24.70;;;17.70;;
20619;SDS011;10469;42.720;23.252;2022-07-29T05:47:27;27.85;;;17.98;;
20619;SDS011;10469;42.720;23.252;2022-07-29T05:49:53;24.10;;;18.08;;
20619;SDS011;10469;42.720;23.252;2022-07-29T05:52:18;29.05;;;20.13;;
20619;SDS011;10469;42.720;23.252;2022-07-29T05:54:44;28.88;;;17.40;;
20619;SDS011;10469;42.720;23.252;2022-07-29T05:57:19;22.60;;;18.17;;
20619;SDS011;10469;42.720;23.252;2022-07-29T05:59:46;42.53;;;18.45;;
20619;SDS011;10469;42.720;23.252;2022-07-29T06:02:13;29.23;;;17.65;;
20619;SDS011;10469;42.720;23.252;2022-07-29T06:04:38;28.15;;;18.55;;
20619;SDS011;10469;42.720;23.252;2022-07-29T06:07:03;26.25;;;17.73;;
20619;SDS011;10469;42.720;23.252;2022-07-29T06:09:29;26.05;;;17.33;;
20619;SDS011;10469;42.720;23.252;2022-07-29T06:11:55;25.88;;;18.10;;
20619;SDS011;10469;42.720;23.252;2022-07-29T06:14:21;24.55;;;17.63;;
20619;SDS011;10469;42.720;23.252;2022-07-29T06:16:46;23.13;;;18.40;;
20619;SDS011;10469;42.720;23.252;2022-07-29T06:19:12;22.92;;;17.52;;
20619;SDS011;10469;42.720;23.252;2022-07-29T06:21:41;30.40;;;17.90;;
20619;SDS011;10469;42.720;23.252;2022-07-29T06:24:08;27.33;;;18.15;;
20619;SDS011;10469;42.720;23.252;2022-07-29T06:26:35;26.92;;;17.80;;
20619;SDS011;10469;42.720;23.252;2022-07-29T06:29:00;23.50;;;16.80;;
20619;SDS011;10469;42.720;23.252;2022-07-29T06:31:26;26.08;;;16.15;;
20619;SDS011;10469;42.720;23.252;2022-07-29T06:33:51;24.27;;;15.35;;
20619;SDS011;10469;42.720;23.252;2022-07-29T06:36:17;20.10;;;15.85;;
20619;SDS011;10469;42.720;23.252;2022-07-29T06:38:43;21.85;;;14.77;;
20619;SDS011;10469;42.720;23.252;2022-07-29T06:41:08;23.67;;;14.95;;
20619;SDS011;10469;42.720;23.252;2022-07-29T06:43:40;20.33;;;16.10;;
20619;SDS011;10469;42.720;23.252;2022-07-29T06:46:08;34.90;;;15.10;;
20619;SDS011;10469;42.720;23.252;2022-07-29T06:48:34;17.20;;;13.13;;
20619;SDS011;10469;42.720;23.252;2022-07-29T06:51:01;20.33;;;12.52;;
20619;SDS011;10469;42.720;23.252;2022-07-29T06:53:28;23.23;;;13.35;;
20619;SDS011;10469;42.720;23.252;2022-07-29T06:55:54;19.17;;;13.40;;
20619;SDS011;10469;42.720;23.252;2022-07-29T06:58:19;17.65;;;13.65;;
20619;SDS011;10469;42.720;23.252;2022-07-29T07:00:48;25.42;;;15.43;;
20619;SDS011;10469;42.720;23.252;2022-07-29T07:03:14;22.08;;;13.38;;
20619;SDS011;10469;42.720;23.252;2022-07-29T07:05:40;14.52;;;9.45;;
20619;SDS011;10469;42.720;23.252;2022-07-29T07:08:06;11.10;;;7.72;;
20619;SDS011;10469;42.720;23.252;2022-07-29T07:10:32;8.85;;;6.68;;
20619;SDS011;10469;42.720;23.252;2022-07-29T07:12:58;9.85;;;4.75;;
20619;SDS011;10469;42.720;23.252;2022-07-29T07:15:24;8.35;;;4.55;;
20619;SDS011;10469;42.720;23.252;2022-07-29T07:17:50;9.90;;;4.78;;
20619;SDS011;10469;42.720;23.252;2022-07-29T07:20:16;13.05;;;5.40;;
20619;SDS011;10469;42.720;23.252;2022-07-29T07:22:42;11.02;;;4.50;;
20619;SDS011;10469;42.720;23.252;2022-07-29T07:25:08;7.30;;;5.30;;
20619;SDS011;10469;42.720;23.252;2022-07-29T07:27:34;5.20;;;4.53;;
20619;SDS011;10469;42.720;23.252;2022-07-29T07:29:59;9.20;;;4.40;;
20619;SDS011;10469;42.720;23.252;2022-07-29T07:32:25;7.53;;;4.10;;
20619;SDS011;10469;42.720;23.252;2022-07-29T07:34:50;5.45;;;3.85;;
20619;SDS011;10469;42.720;23.252;2022-07-29T07:37:15;6.32;;;3.90;;
20619;SDS011;10469;42.720;23.252;2022-07-29T07:39:42;7.30;;;4.10;;
20619;SDS011;10469;42.720;23.252;2022-07-29T07:42:07;7.18;;;4.05;;
20619;SDS011;10469;42.720;23.252;2022-07-29T07:44:33;7.80;;;4.07;;
20619;SDS011;10469;42.720;23.252;2022-07-29T07:46:58;4.47;;;4.07;;
20619;SDS011;10469;42.720;23.252;2022-07-29T07:49:24;6.05;;;4.63;;
20619;SDS011;10469;42.720;23.252;2022-07-29T07:51:49;5.25;;;3.50;;
20619;SDS011;10469;42.720;23.252;2022-07-29T07:54:15;6.47;;;4.30;;
20619;SDS011;10469;42.720;23.252;2022-07-29T07:56:40;7.85;;;4.07;;
20619;SDS011;10469;42.720;23.252;2022-07-29T07:59:06;6.90;;;4.22;;
20619;SDS011;10469;42.720;23.252;2022-07-29T08:01:31;8.55;;;3.72;;
20619;SDS011;10469;42.720;23.252;2022-07-29T08:03:56;6.28;;;4.07;;
20619;SDS011;10469;42.720;23.252;2022-07-29T08:06:22;5.47;;;3.92;;
20619;SDS011;10469;42.720;23.252;2022-07-29T08:08:50;6.68;;;4.38;;
20619;SDS011;10469;42.720;23.252;2022-07-29T08:11:15;6.45;;;4.40;;
20619;SDS011;10469;42.720;23.252;2022-07-29T08:13:41;5.32;;;4.10;;
20619;SDS011;10469;42.720;23.252;2022-07-29T08:16:08;5.10;;;4.13;;
20619;SDS011;10469;42.720;23.252;2022-07-29T08:18:37;6.38;;;4.85;;
20619;SDS011;10469;42.720;23.252;2022-07-29T08:21:04;6.68;;;4.68;;
20619;SDS011;10469;42.720;23.252;2022-07-29T08:23:30;4.20;;;3.80;;
20619;SDS011;10469;42.720;23.252;2022-07-29T08:26:03;6.10;;;4.55;;
20619;SDS011;10469;42.720;23.252;2022-07-29T08:28:30;6.03;;;4.10;;
20619;SDS011;10469;42.720;23.252;2022-07-29T08:30:55;8.02;;;4.15;;
20619;SDS011;10469;42.720;23.252;2022-07-29T08:33:21;6.82;;;4.68;;
20619;SDS011;10469;42.720;23.252;2022-07-29T08:35:46;4.35;;;3.67;;
20619;SDS011;10469;42.720;23.252;2022-07-29T08:38:12;6.63;;;4.30;;
20619;SDS011;10469;42.720;23.252;2022-07-29T08:40:37;5.93;;;3.78;;
20619;SDS011;10469;42.720;23.252;2022-07-29T08:43:07;4.57;;;3.58;;
20619;SDS011;10469;42.720;23.252;2022-07-29T08:45:36;5.10;;;3.83;;
20619;SDS011;10469;42.720;23.252;2022-07-29T08:48:08;5.68;;;3.80;;
20619;SDS011;10469;42.720;23.252;2022-07-29T08:50:34;6.75;;;4.55;;
20619;SDS011;10469;42.720;23.252;2022-07-29T08:53:01;5.95;;;3.60;;
20619;SDS011;10469;42.720;23.252;2022-07-29T08:55:27;5.32;;;4.05;;
20619;SDS011;10469;42.720;23.252;2022-07-29T08:57:53;6.20;;;4.07;;
20619;SDS011;10469;42.720;23.252;2022-07-29T09:00:20;6.43;;;3.90;;
20619;SDS011;10469;42.720;23.252;2022-07-29T09:02:47;4.88;;;4.03;;
20619;SDS011;10469;42.720;23.252;2022-07-29T09:05:20;4.72;;;3.72;;
20619;SDS011;10469;42.720;23.252;2022-07-29T09:07:47;4.57;;;4.13;;
20619;SDS011;10469;42.720;23.252;2022-07-29T09:10:13;3.90;;;3.60;;
20619;SDS011;10469;42.720;23.252;2022-07-29T09:12:38;6.15;;;4.20;;
20619;SDS011;10469;42.720;23.252;2022-07-29T09:15:04;4.07;;;3.22;;
20619;SDS011;10469;42.720;23.252;2022-07-29T09:17:43;6.20;;;3.72;;
20619;SDS011;10469;42.720;23.252;2022-07-29T09:20:11;4.57;;;3.67;;
20619;SDS011;10469;42.720;23.252;2022-07-29T09:22:38;5.82;;;3.92;;
20619;SDS011;10469;42.720;23.252;2022-07-29T09:25:04;6.50;;;3.15;;
20619;SDS011;10469;42.720;23.252;2022-07-29T09:27:30;5.60;;;3.50;;
20619;SDS011;10469;42.720;23.252;2022-07-29T09:30:03;3.30;;;3.00;;
20619;SDS011;10469;42.720;23.252;2022-07-29T09:32:31;5.20;;;3.63;;
20619;SDS011;10469;42.720;23.252;2022-07-29T09:35:13;7.88;;;3.55;;
20619;SDS011;10469;42.720;23.252;2022-07-29T09:37:44;4.53;;;4.03;;
20619;SDS011;10469;42.720;23.252;2022-07-29T09:40:20;4.53;;;4.10;;
20619;SDS011;10469;42.720;23.252;2022-07-29T09:42:46;6.03;;;3.83;;
20619;SDS011;10469;42.720;23.252;2022-07-29T09:45:11;5.47;;;3.33;;
20619;SDS011;10469;42.720;23.252;2022-07-29T09:47:50;4.18;;;3.45;;
20619;SDS011;10469;42.720;23.252;2022-07-29T09:50:16;5.60;;;3.50;;
20619;SDS011;10469;42.720;23.252;2022-07-29T09:52:47;4.30;;;3.40;;
20619;SDS011;10469;42.720;23.252;2022-07-29T09:55:15;7.63;;;3.50;;
20619;SDS011;10469;42.720;23.252;2022-07-29T09:57:41;5.30;;;3.70;;
20619;SDS011;10469;42.720;23.252;2022-07-29T10:00:08;7.05;;;3.67;;
20619;SDS011;10469;42.720;23.252;2022-07-29T10:02:35;5.60;;;3.75;;
20619;SDS011;10469;42.720;23.252;2022-07-29T10:05:03;6.82;;;3.42;;
20619;SDS011;10469;42.720;23.252;2022-07-29T10:07:44;4.55;;;3.40;;
20619;SDS011;10469;42.720;23.252;2022-07-29T10:10:10;5.20;;;3.60;;
20619;SDS011;10469;42.720;23.252;2022-07-29T10:13:02;5.35;;;3.85;;
20619;SDS011;10469;42.720;23.252;2022-07-29T10:15:33;5.68;;;3.70;;
20619;SDS011;10469;42.720;23.252;2022-07-29T10:18:04;4.13;;;3.50;;
20619;SDS011;10469;42.720;23.252;2022-07-29T10:20:30;5.38;;;3.55;;
20619;SDS011;10469;42.720;23.252;2022-07-29T10:22:56;11.20;;;3.30;;
20619;SDS011;10469;42.720;23.252;2022-07-29T10:25:22;4.55;;;3.90;;
20619;SDS011;10469;42.720;23.252;2022-07-29T10:27:49;4.57;;;3.90;;
20619;SDS011;10469;42.720;23.252;2022-07-29T10:30:19;3.45;;;3.05;;
20619;SDS011;10469;42.720;23.252;2022-07-29T10:38:00;5.38;;;3.28;;
20619;SDS011;10469;42.720;23.252;2022-07-29T10:40:42;8.70;;;4.05;;
20619;SDS011;10469;42.720;23.252;2022-07-29T10:43:35;5.50;;;3.92;;
20619;SDS011;10469;42.720;23.252;2022-07-29T10:46:03;6.28;;;3.80;;
20619;SDS011;10469;42.720;23.252;2022-07-29T10:48:29;4.10;;;3.70;;
20619;SDS011;10469;42.720;23.252;2022-07-29T10:50:56;8.02;;;4.35;;
20619;SDS011;10469;42.720;23.252;2022-07-29T10:53:22;4.05;;;3.70;;
20619;SDS011;10469;42.720;23.252;2022-07-29T10:55:49;4.38;;;3.83;;
20619;SDS011;10469;42.720;23.252;2022-07-29T10:58:17;7.72;;;3.45;;
20619;SDS011;10469;42.720;23.252;2022-07-29T11:00:43;7.07;;;3.60;;
20619;SDS011;10469;42.720;23.252;2022-07-29T11:06:10;4.30;;;3.90;;
20619;SDS011;10469;42.720;23.252;2022-07-29T11:08:36;7.97;;;3.80;;
20619;SDS011;10469;42.720;23.252;2022-07-29T11:11:47;5.03;;;3.28;;
20619;SDS011;10469;42.720;23.252;2022-07-29T11:13:51;7.22;;;3.30;;
20619;SDS011;10469;42.720;23.252;2022-07-29T11:16:19;7.43;;;4.03;;
20619;SDS011;10469;42.720;23.252;2022-07-29T11:19:22;7.25;;;4.18;;
20619;SDS011;10469;42.720;23.252;2022-07-29T11:21:44;4.15;;;3.78;;
20619;SDS011;10469;42.720;23.252;2022-07-29T11:29:38;6.82;;;4.45;;
20619;SDS011;10469;42.720;23.252;2022-07-29T11:32:09;4.85;;;4.20;;
20619;SDS011;10469;42.720;23.252;2022-07-29T11:34:37;7.35;;;4.15;;
20619;SDS011;10469;42.720;23.252;2022-07-29T11:44:59;4.63;;;3.80;;
20619;SDS011;10469;42.720;23.252;2022-07-29T11:47:25;4.57;;;4.18;;
20619;SDS011;10469;42.720;23.252;2022-07-29T11:49:52;3.92;;;3.55;;
20619;SDS011;10469;42.720;23.252;2022-07-29T11:52:19;4.90;;;4.22;;
20619;SDS011;10469;42.720;23.252;2022-07-29T11:54:47;5.00;;;3.97;;
20619;SDS011;10469;42.720;23.252;2022-07-29T11:57:14;5.72;;;4.40;;
20619;SDS011;10469;42.720;23.252;2022-07-29T11:59:45;5.45;;;4.90;;
20619;SDS011;10469;42.720;23.252;2022-07-29T12:02:13;5.35;;;4.32;;
20619;SDS011;10469;42.720;23.252;2022-07-29T12:04:49;5.90;;;5.30;;
20619;SDS011;10469;42.720;23.252;2022-07-29T12:07:26;5.18;;;4.10;;
20619;SDS011;10469;42.720;23.252;2022-07-29T12:09:55;7.05;;;4.95;;
20619;SDS011;10469;42.720;23.252;2022-07-29T12:12:21;8.35;;;4.70;;
20619;SDS011;10469;42.720;23.252;2022-07-29T12:14:48;5.90;;;4.50;;
20619;SDS011;10469;42.720;23.252;2022-07-29T12:17:29;6.95;;;4.68;;
20619;SDS011;10469;42.720;23.252;2022-07-29T12:19:56;4.90;;;4.07;;
20619;SDS011;10469;42.720;23.252;2022-07-29T12:22:28;8.02;;;4.97;;
20619;SDS011;10469;42.720;23.252;2022-07-29T12:24:54;5.53;;;4.67;;
20619;SDS011;10469;42.720;23.252;2022-07-29T12:27:20;7.78;;;4.30;;
20619;SDS011;10469;42.720;23.252;2022-07-29T12:29:59;5.82;;;5.22;;
20619;SDS011;10469;42.720;23.252;2022-07-29T12:32:36;7.07;;;4.75;;
20619;SDS011;10469;42.720;23.252;2022-07-29T12:35:03;6.78;;;4.72;;
20619;SDS011;10469;42.720;23.252;2022-07-29T12:37:31;6.95;;;4.72;;
20619;SDS011;10469;42.720;23.252;2022-07-29T12:39:58;8.18;;;5.40;;
20619;SDS011;10469;42.720;23.252;2022-07-29T12:42:24;5.53;;;4.93;;
20619;SDS011;10469;42.720;23.252;2022-07-29T12:44:50;8.68;;;4.75;;
20619;SDS011;10469;42.720;23.252;2022-07-29T12:47:16;8.52;;;4.80;;
20619;SDS011;10469;42.720;23.252;2022-07-29T12:49:43;11.88;;;4.93;;
20619;SDS011;10469;42.720;23.252;2022-07-29T12:55:04;5.22;;;4.53;;
20619;SDS011;10469;42.720;23.252;2022-07-29T12:57:30;6.40;;;4.47;;
20619;SDS011;10469;42.720;23.252;2022-07-29T13:02:28;6.67;;;5.27;;
20619;SDS011;10469;42.720;23.252;2022-07-29T13:04:57;8.68;;;5.05;;
20619;SDS011;10469;42.720;23.252;2022-07-29T13:07:25;9.75;;;5.22;;
20619;SDS011;10469;42.720;23.252;2022-07-29T13:09:53;5.15;;;4.55;;
20619;SDS011;10469;42.720;23.252;2022-07-29T13:12:19;7.97;;;4.90;;
20619;SDS011;10469;42.720;23.252;2022-07-29T13:14:49;8.32;;;4.88;;
20619;SDS011;10469;42.720;23.252;2022-07-29T13:17:22;5.65;;;4.95;;
20619;SDS011;10469;42.720;23.252;2022-07-29T13:19:52;6.72;;;5.90;;
20619;SDS011;10469;42.720;23.252;2022-07-29T13:22:29;6.30;;;5.70;;
20619;SDS011;10469;42.720;23.252;2022-07-29T13:24:55;5.80;;;5.18;;
20619;SDS011;10469;42.720;23.252;2022-07-29T13:27:27;6.00;;;5.47;;
20619;SDS011;10469;42.720;23.252;2022-07-29T13:29:55;7.95;;;5.57;;
20619;SDS011;10469;42.720;23.252;2022-07-29T13:32:22;6.93;;;4.80;;
20619;SDS011;10469;42.720;23.252;2022-07-29T13:34:49;5.43;;;4.93;;
20619;SDS011;10469;42.720;23.252;2022-07-29T13:37:15;6.57;;;5.38;;
20619;SDS011;10469;42.720;23.252;2022-07-29T13:39:41;11.05;;;5.47;;
20619;SDS011;10469;42.720;23.252;2022-07-29T13:42:08;9.98;;;5.45;;
20619;SDS011;10469;42.720;23.252;2022-07-29T13:44:33;7.88;;;5.90;;
20619;SDS011;10469;42.720;23.252;2022-07-29T13:46:59;8.18;;;5.20;;
20619;SDS011;10469;42.720;23.252;2022-07-29T13:49:25;10.90;;;5.93;;
20619;SDS011;10469;42.720;23.252;2022-07-29T13:51:52;10.05;;;5.50;;
20619;SDS011;10469;42.720;23.252;2022-07-29T13:54:17;11.43;;;5.70;;
20619;SDS011;10469;42.720;23.252;2022-07-29T13:56:43;7.10;;;5.60;;
20619;SDS011;10469;42.720;23.252;2022-07-29T13:59:08;6.10;;;5.57;;
20619;SDS011;10469;42.720;23.252;2022-07-29T14:01:34;5.70;;;5.10;;
20619;SDS011;10469;42.720;23.252;2022-07-29T14:04:00;7.90;;;5.03;;
20619;SDS011;10469;42.720;23.252;2022-07-29T14:06:25;6.93;;;5.47;;
20619;SDS011;10469;42.720;23.252;2022-07-29T14:08:51;7.22;;;5.20;;
20619;SDS011;10469;42.720;23.252;2022-07-29T14:11:16;6.57;;;5.32;;
20619;SDS011;10469;42.720;23.252;2022-07-29T14:13:42;6.13;;;5.32;;
20619;SDS011;10469;42.720;23.252;2022-07-29T14:16:07;8.95;;;5.88;;
20619;SDS011;10469;42.720;23.252;2022-07-29T14:18:33;6.28;;;5.68;;
20619;SDS011;10469;42.720;23.252;2022-07-29T14:20:58;5.60;;;5.03;;
20619;SDS011;10469;42.720;23.252;2022-07-29T14:23:24;5.20;;;4.70;;
20619;SDS011;10469;42.720;23.252;2022-07-29T14:25:49;8.40;;;5.18;;
20619;SDS011;10469;42.720;23.252;2022-07-29T14:28:15;7.55;;;5.40;;
20619;SDS011;10469;42.720;23.252;2022-07-29T14:30:40;7.45;;;5.20;;
20619;SDS011;10469;42.720;23.252;2022-07-29T14:33:05;5.90;;;5.38;;
20619;SDS011;10469;42.720;23.252;2022-07-29T14:35:31;5.35;;;4.75;;
20619;SDS011;10469;42.720;23.252;2022-07-29T14:37:56;13.10;;;5.10;;
20619;SDS011;10469;42.720;23.252;2022-07-29T14:40:22;6.05;;;4.80;;
20619;SDS011;10469;42.720;23.252;2022-07-29T14:42:47;5.85;;;5.25;;
20619;SDS011;10469;42.720;23.252;2022-07-29T14:45:13;6.22;;;5.38;;
20619;SDS011;10469;42.720;23.252;2022-07-29T14:47:39;7.63;;;5.18;;
20619;SDS011;10469;42.720;23.252;2022-07-29T14:50:04;6.28;;;5.68;;
20619;SDS011;10469;42.720;23.252;2022-07-29T14:52:31;6.63;;;5.15;;
20619;SDS011;10469;42.720;23.252;2022-07-29T14:54:56;5.85;;;5.30;;
20619;SDS011;10469;42.720;23.252;2022-07-29T14:57:22;6.65;;;5.05;;
20619;SDS011;10469;42.720;23.252;2022-07-29T14:59:47;7.18;;;5.40;;
20619;SDS011;10469;42.720;23.252;2022-07-29T15:02:13;7.78;;;4.95;;
20619;SDS011;10469;42.720;23.252;2022-07-29T15:04:38;6.57;;;5.40;;
20619;SDS011;10469;42.720;23.252;2022-07-29T15:07:04;6.10;;;5.50;;
20619;SDS011;10469;42.720;23.252;2022-07-29T15:09:29;7.90;;;5.40;;
20619;SDS011;10469;42.720;23.252;2022-07-29T15:11:55;8.75;;;5.72;;
20619;SDS011;10469;42.720;23.252;2022-07-29T15:14:20;9.50;;;5.47;;
20619;SDS011;10469;42.720;23.252;2022-07-29T15:16:46;9.90;;;5.50;;